ACA859 EGLL-CYYZ
Flight info
| Callsign | ACA859 |
|---|---|
| Flight time | N/A |
| Altitude | 24000 |
| Route | CPT L9 DIDZA/N0481F320 L9 BIBPE DCT BUCGO DCT FELCA DCT FADZU DCT OFSOX DCT BANBA DCT DOLIP DCT LIMRI/M082F320 DCT 52N020W 52N030W 52N040W 50N050W DCT ELSIR/N0476F320 DCT YQX/N0471F340 DCT MIILS/N0479F360 DCT LETAK IMEBA9 |
| Aircraft | B77W/H-SDE1E2E3FGHIJ2J3J4J5M1RWXY/LB1D1 |
Departure
| Time | 2026-04-30 17:50 |
|---|---|
| Airport | London Heathrow Airport (EGLL) |
Arrival
| Time | N/A |
|---|---|
| Airport | Toronto Pearson International Airport (CYYZ) |
| Time | Latitude | Longitude | Altitude | Speed | Heading |
|---|---|---|---|---|---|
| 2026-04-30 17:39 | 51.46867 | -0.44528 | 93 ft | 3 kts | 118° |
| 2026-04-30 17:41 | 51.46926 | -0.44558 | 91 ft | 0 kts | 180° |
| 2026-04-30 17:44 | 51.46726 | -0.44556 | 93 ft | 12 kts | 179° |
| 2026-04-30 17:44 | 51.46663 | -0.45150 | 92 ft | 25 kts | 270° |
| 2026-04-30 17:46 | 51.46658 | -0.46560 | 95 ft | 25 kts | 269° |
| 2026-04-30 17:47 | 51.46654 | -0.47689 | 91 ft | 25 kts | 270° |
| 2026-04-30 17:48 | 51.46651 | -0.48491 | 92 ft | 20 kts | 270° |
| 2026-04-30 17:48 | 51.46566 | -0.48784 | 95 ft | 9 kts | 191° |
| 2026-04-30 17:49 | 51.46484 | -0.46699 | 96 ft | 148 kts | 90° |
| 2026-04-30 17:50 | 51.45300 | -0.39205 | 1616 ft | 214 kts | 150° |
| 2026-04-30 17:51 | 51.40832 | -0.41612 | 2923 ft | 264 kts | 219° |
| 2026-04-30 17:52 | 51.36986 | -0.47837 | 5170 ft | 262 kts | 220° |
| 2026-04-30 17:53 | 51.36121 | -0.61866 | 8221 ft | 297 kts | 294° |
| 2026-04-30 17:54 | 51.40142 | -0.73916 | 10725 ft | 322 kts | 296° |
| 2026-04-30 17:55 | 51.44860 | -0.88309 | 11851 ft | 397 kts | 296° |
| 2026-04-30 17:56 | 51.50085 | -1.04502 | 14640 ft | 418 kts | 295° |
| 2026-04-30 17:57 | 51.54130 | -1.17129 | 16711 ft | 429 kts | 295° |
| 2026-04-30 17:58 | 51.58273 | -1.30135 | 18647 ft | 442 kts | 295° |
| 2026-04-30 17:59 | 51.63933 | -1.48012 | 20880 ft | 457 kts | 294° |
| 2026-04-30 18:00 | 51.69544 | -1.66781 | 22952 ft | 471 kts | 285° |
| 2026-04-30 18:00 | 51.71438 | -1.82294 | 24373 ft | 473 kts | 272° |
| 2026-04-30 18:01 | 51.72144 | -1.92894 | 25315 ft | 477 kts | 272° |
| 2026-04-30 18:02 | 51.73276 | -2.08943 | 26641 ft | 483 kts | 272° |
| 2026-04-30 18:02 | 51.74403 | -2.25183 | 27899 ft | 489 kts | 272° |
| 2026-04-30 18:03 | 51.75513 | -2.41555 | 29081 ft | 493 kts | 273° |
| 2026-04-30 18:04 | 51.76614 | -2.58141 | 30108 ft | 497 kts | 273° |
| 2026-04-30 18:05 | 51.78041 | -2.80228 | 31652 ft | 491 kts | 273° |
| 2026-04-30 18:06 | 51.79418 | -3.02184 | 32259 ft | 491 kts | 272° |
| 2026-04-30 18:08 | 51.81725 | -3.40517 | 32146 ft | 490 kts | 272° |
| 2026-04-30 18:10 | 51.86404 | -3.84063 | 32104 ft | 494 kts | 278° |
| 2026-04-30 18:11 | 51.91218 | -4.22226 | 32099 ft | 494 kts | 277° |
| 2026-04-30 18:13 | 51.94574 | -4.49443 | 32083 ft | 494 kts | 277° |
| 2026-04-30 18:14 | 51.97655 | -4.74933 | 32077 ft | 494 kts | 277° |
| 2026-04-30 18:15 | 52.01545 | -5.07822 | 32075 ft | 494 kts | 277° |
| 2026-04-30 18:16 | 52.02266 | -5.29799 | 32076 ft | 484 kts | 259° |
| 2026-04-30 18:17 | 52.01471 | -5.40576 | 32081 ft | 484 kts | 259° |
| 2026-04-30 18:18 | 52.00277 | -5.56863 | 32067 ft | 484 kts | 259° |
| 2026-04-30 18:18 | 51.99494 | -5.67740 | 32069 ft | 484 kts | 259° |
| 2026-04-30 18:19 | 51.98707 | -5.78592 | 32069 ft | 484 kts | 259° |
| 2026-04-30 18:19 | 51.97907 | -5.89450 | 32070 ft | 484 kts | 259° |
| 2026-04-30 18:20 | 51.97098 | -6.00292 | 32069 ft | 484 kts | 258° |
| 2026-04-30 18:20 | 51.96283 | -6.11084 | 32069 ft | 485 kts | 258° |
| 2026-04-30 18:21 | 51.95481 | -6.21929 | 32065 ft | 486 kts | 261° |
| 2026-04-30 18:21 | 51.95501 | -6.32951 | 32071 ft | 491 kts | 269° |
| 2026-04-30 18:22 | 51.95891 | -6.44030 | 32063 ft | 492 kts | 269° |
| 2026-04-30 18:22 | 51.96436 | -6.60653 | 32066 ft | 492 kts | 268° |
| 2026-04-30 18:23 | 51.96761 | -6.71751 | 32063 ft | 492 kts | 268° |
| 2026-04-30 18:23 | 51.97068 | -6.82772 | 32070 ft | 493 kts | 268° |
| 2026-04-30 18:24 | 51.97515 | -6.99448 | 32062 ft | 494 kts | 268° |
| 2026-04-30 18:25 | 51.97801 | -7.10577 | 32075 ft | 494 kts | 267° |
| 2026-04-30 18:25 | 51.98211 | -7.27306 | 32068 ft | 495 kts | 267° |
| 2026-04-30 18:26 | 51.98598 | -7.44043 | 32065 ft | 495 kts | 266° |
| 2026-04-30 18:27 | 51.98961 | -7.60813 | 32061 ft | 496 kts | 266° |
| 2026-04-30 18:28 | 51.99301 | -7.77611 | 32051 ft | 497 kts | 266° |
| 2026-04-30 18:28 | 51.99618 | -7.94420 | 32059 ft | 497 kts | 266° |
| 2026-04-30 18:29 | 52.00003 | -8.16830 | 32053 ft | 498 kts | 265° |
| 2026-04-30 18:30 | 52.00346 | -8.39351 | 32052 ft | 499 kts | 265° |
| 2026-04-30 18:31 | 52.00576 | -8.56274 | 32058 ft | 501 kts | 264° |
| 2026-04-30 18:32 | 52.00782 | -8.73245 | 32051 ft | 502 kts | 264° |
| 2026-04-30 18:33 | 52.00964 | -8.90260 | 32043 ft | 503 kts | 264° |
| 2026-04-30 18:33 | 52.01122 | -9.07272 | 32046 ft | 505 kts | 264° |
| 2026-04-30 18:34 | 52.01256 | -9.24390 | 32045 ft | 506 kts | 264° |
| 2026-04-30 18:35 | 52.01332 | -9.35833 | 32042 ft | 507 kts | 263° |
| 2026-04-30 18:35 | 52.01396 | -9.47301 | 32029 ft | 508 kts | 263° |
| 2026-04-30 18:36 | 52.01472 | -9.64468 | 32007 ft | 510 kts | 263° |
| 2026-04-30 18:37 | 52.01523 | -9.81765 | 32040 ft | 513 kts | 263° |
| 2026-04-30 18:37 | 52.01544 | -9.93361 | 32019 ft | 513 kts | 263° |
| 2026-04-30 18:38 | 52.01554 | -10.04948 | 32025 ft | 513 kts | 263° |
| 2026-04-30 18:38 | 52.01550 | -10.16560 | 32010 ft | 515 kts | 263° |
| 2026-04-30 18:39 | 52.01537 | -10.28195 | 32005 ft | 515 kts | 263° |
| 2026-04-30 18:39 | 52.01512 | -10.39818 | 32002 ft | 515 kts | 263° |
| 2026-04-30 18:40 | 52.01475 | -10.51378 | 32008 ft | 515 kts | 263° |
| 2026-04-30 18:40 | 52.01427 | -10.63037 | 32011 ft | 516 kts | 263° |
| 2026-04-30 18:41 | 52.01367 | -10.74694 | 32014 ft | 516 kts | 264° |
| 2026-04-30 18:41 | 52.01296 | -10.86349 | 32013 ft | 516 kts | 264° |
| 2026-04-30 18:42 | 52.01213 | -10.98006 | 32010 ft | 516 kts | 264° |
| 2026-04-30 18:42 | 52.01068 | -11.15442 | 32010 ft | 517 kts | 264° |
| 2026-04-30 18:45 | 52.00313 | -11.79580 | 31996 ft | 518 kts | 264° |
| 2026-04-30 18:46 | 52.00139 | -11.91261 | 32002 ft | 518 kts | 264° |
| 2026-04-30 18:46 | 51.99966 | -12.02946 | 32000 ft | 518 kts | 266° |
| 2026-04-30 18:47 | 52.00059 | -12.14670 | 32005 ft | 520 kts | 268° |
| 2026-04-30 18:47 | 52.00262 | -12.26396 | 32002 ft | 520 kts | 268° |
| 2026-04-30 18:48 | 52.00423 | -12.38141 | 32002 ft | 519 kts | 268° |
| 2026-04-30 18:48 | 52.00534 | -12.49776 | 32002 ft | 519 kts | 268° |
| 2026-04-30 18:49 | 52.00623 | -12.61492 | 32009 ft | 519 kts | 268° |
| 2026-04-30 18:49 | 52.00701 | -12.73188 | 32066 ft | 520 kts | 268° |
| 2026-04-30 18:49 | 52.00737 | -12.79059 | 32356 ft | 519 kts | 268° |
| 2026-04-30 18:50 | 52.00771 | -12.84909 | 32742 ft | 516 kts | 268° |
| 2026-04-30 18:50 | 52.00802 | -12.90730 | 33138 ft | 513 kts | 268° |
| 2026-04-30 18:50 | 52.00830 | -12.96509 | 33490 ft | 511 kts | 268° |
| 2026-04-30 18:50 | 52.00855 | -13.02277 | 33795 ft | 510 kts | 268° |
| 2026-04-30 18:51 | 52.00877 | -13.08033 | 33946 ft | 511 kts | 268° |
| 2026-04-30 18:51 | 52.00912 | -13.19566 | 34018 ft | 511 kts | 268° |
| 2026-04-30 18:52 | 52.00935 | -13.31100 | 34009 ft | 510 kts | 268° |
| 2026-04-30 18:52 | 52.00948 | -13.42609 | 34016 ft | 510 kts | 269° |
| 2026-04-30 18:53 | 52.00950 | -13.54118 | 34015 ft | 510 kts | 269° |
| 2026-04-30 18:53 | 52.00940 | -13.65534 | 34017 ft | 509 kts | 269° |
| 2026-04-30 18:54 | 52.00920 | -13.77051 | 34012 ft | 509 kts | 269° |
| 2026-04-30 18:54 | 52.00888 | -13.88557 | 34021 ft | 509 kts | 269° |
| 2026-04-30 18:55 | 52.00844 | -14.00054 | 34021 ft | 509 kts | 269° |
| 2026-04-30 18:55 | 52.00759 | -14.17305 | 34027 ft | 509 kts | 269° |
| 2026-04-30 18:56 | 52.00648 | -14.34547 | 34026 ft | 509 kts | 269° |
| 2026-04-30 18:57 | 52.00512 | -14.51775 | 34028 ft | 509 kts | 269° |
| 2026-04-30 18:57 | 52.00408 | -14.63262 | 34035 ft | 508 kts | 269° |
| 2026-04-30 18:58 | 52.00232 | -14.80382 | 34038 ft | 508 kts | 269° |
| 2026-04-30 18:59 | 52.00031 | -14.97588 | 34040 ft | 508 kts | 269° |
| 2026-04-30 19:00 | 52.00383 | -15.20435 | 34044 ft | 508 kts | 272° |
| 2026-04-30 19:01 | 52.00839 | -15.43357 | 34051 ft | 508 kts | 272° |
| 2026-04-30 19:02 | 52.01095 | -15.58614 | 34051 ft | 507 kts | 272° |
| 2026-04-30 19:03 | 52.01442 | -15.81523 | 34060 ft | 507 kts | 272° |
| 2026-04-30 19:04 | 52.01746 | -16.04372 | 34056 ft | 506 kts | 272° |
| 2026-04-30 19:05 | 52.02005 | -16.27147 | 34085 ft | 505 kts | 272° |
| 2026-04-30 19:06 | 52.02220 | -16.49913 | 34083 ft | 503 kts | 273° |
| 2026-04-30 19:06 | 52.02351 | -16.66925 | 34091 ft | 501 kts | 273° |
| 2026-04-30 19:07 | 52.02459 | -16.83900 | 34090 ft | 500 kts | 273° |
| 2026-04-30 19:08 | 52.02563 | -17.06429 | 34102 ft | 500 kts | 273° |
| 2026-04-30 19:09 | 52.02614 | -17.23373 | 34113 ft | 499 kts | 273° |
| 2026-04-30 19:09 | 52.02634 | -17.34645 | 34108 ft | 499 kts | 273° |
| 2026-04-30 19:10 | 52.02642 | -17.57193 | 34122 ft | 499 kts | 273° |
| 2026-04-30 19:11 | 52.02619 | -17.74105 | 34129 ft | 499 kts | 273° |
| 2026-04-30 19:12 | 52.02591 | -17.85290 | 34124 ft | 499 kts | 273° |
| 2026-04-30 19:12 | 52.02552 | -17.96543 | 34130 ft | 498 kts | 273° |
| 2026-04-30 19:13 | 52.02442 | -18.19030 | 34144 ft | 496 kts | 272° |
| 2026-04-30 19:14 | 52.02371 | -18.30233 | 34146 ft | 496 kts | 272° |
| 2026-04-30 19:14 | 52.02290 | -18.41348 | 34144 ft | 495 kts | 272° |
| 2026-04-30 19:15 | 52.02199 | -18.52505 | 34152 ft | 494 kts | 272° |
| 2026-04-30 19:15 | 52.02042 | -18.69208 | 34160 ft | 492 kts | 272° |
| 2026-04-30 19:16 | 52.01925 | -18.80308 | 34161 ft | 492 kts | 272° |
| 2026-04-30 19:17 | 52.01730 | -18.96949 | 34169 ft | 491 kts | 272° |
| 2026-04-30 19:17 | 52.01511 | -19.13606 | 34172 ft | 491 kts | 271° |
| 2026-04-30 19:18 | 52.01270 | -19.30175 | 34176 ft | 492 kts | 271° |
| 2026-04-30 19:19 | 52.01095 | -19.41347 | 34183 ft | 492 kts | 271° |
| 2026-04-30 19:19 | 52.00814 | -19.57922 | 34189 ft | 492 kts | 271° |
| 2026-04-30 19:20 | 52.00614 | -19.69008 | 34193 ft | 491 kts | 270° |
| 2026-04-30 19:21 | 52.00295 | -19.85620 | 34200 ft | 490 kts | 270° |
| 2026-04-30 19:22 | 52.00252 | -20.07688 | 34211 ft | 487 kts | 276° |
| 2026-04-30 19:23 | 52.01651 | -20.40567 | 34214 ft | 486 kts | 276° |
| 2026-04-30 19:24 | 52.02278 | -20.56975 | 34213 ft | 485 kts | 276° |
| 2026-04-30 19:25 | 52.03271 | -20.84296 | 34228 ft | 484 kts | 276° |
| 2026-04-30 19:26 | 52.04018 | -21.06055 | 34241 ft | 483 kts | 276° |
| 2026-04-30 19:27 | 52.04554 | -21.22421 | 34250 ft | 483 kts | 276° |
| 2026-04-30 19:28 | 52.05064 | -21.38713 | 34249 ft | 483 kts | 276° |
| 2026-04-30 19:29 | 52.05712 | -21.60560 | 34254 ft | 484 kts | 276° |
| 2026-04-30 19:30 | 52.06321 | -21.82432 | 34265 ft | 484 kts | 276° |
| 2026-04-30 19:31 | 52.06890 | -22.04333 | 34271 ft | 485 kts | 276° |
| 2026-04-30 19:31 | 52.07289 | -22.20720 | 34277 ft | 486 kts | 276° |
| 2026-04-30 19:32 | 52.07543 | -22.31692 | 34279 ft | 486 kts | 277° |
| 2026-04-30 19:32 | 52.07788 | -22.42693 | 34281 ft | 487 kts | 277° |
| 2026-04-30 19:33 | 52.08023 | -22.53703 | 34285 ft | 488 kts | 277° |
| 2026-04-30 19:33 | 52.08248 | -22.64753 | 34293 ft | 489 kts | 277° |
| 2026-04-30 19:34 | 52.08464 | -22.75831 | 34290 ft | 490 kts | 277° |
| 2026-04-30 19:35 | 52.08767 | -22.92411 | 34292 ft | 492 kts | 277° |
| 2026-04-30 19:35 | 52.08957 | -23.03535 | 34308 ft | 493 kts | 277° |
| 2026-04-30 19:36 | 52.09137 | -23.14687 | 34303 ft | 493 kts | 277° |
| 2026-04-30 19:36 | 52.09388 | -23.31445 | 34310 ft | 494 kts | 277° |
| 2026-04-30 19:37 | 52.09542 | -23.42609 | 34314 ft | 495 kts | 277° |
| 2026-04-30 19:37 | 52.09686 | -23.53795 | 34316 ft | 495 kts | 277° |
| 2026-04-30 19:38 | 52.09819 | -23.65000 | 34322 ft | 495 kts | 277° |
| 2026-04-30 19:38 | 52.09941 | -23.76131 | 34319 ft | 496 kts | 277° |
| 2026-04-30 19:39 | 52.10053 | -23.87344 | 34324 ft | 496 kts | 277° |
| 2026-04-30 19:39 | 52.10154 | -23.98549 | 34328 ft | 496 kts | 277° |
| 2026-04-30 19:40 | 52.10245 | -24.09776 | 34333 ft | 496 kts | 277° |
| 2026-04-30 19:40 | 52.10325 | -24.20987 | 34338 ft | 496 kts | 277° |
| 2026-04-30 19:41 | 52.10395 | -24.32197 | 34338 ft | 495 kts | 277° |
| 2026-04-30 19:41 | 52.10453 | -24.43391 | 34336 ft | 495 kts | 277° |
| 2026-04-30 19:42 | 52.10502 | -24.54553 | 34338 ft | 495 kts | 277° |
| 2026-04-30 19:42 | 52.10540 | -24.65750 | 34345 ft | 495 kts | 276° |
| 2026-04-30 19:43 | 52.10567 | -24.76965 | 34347 ft | 495 kts | 276° |
| 2026-04-30 19:44 | 52.10588 | -24.93780 | 34354 ft | 495 kts | 276° |
| 2026-04-30 19:44 | 52.10588 | -25.04978 | 34353 ft | 495 kts | 276° |
| 2026-04-30 19:45 | 52.10579 | -25.16109 | 34360 ft | 495 kts | 276° |
| 2026-04-30 19:45 | 52.10558 | -25.27316 | 34350 ft | 495 kts | 276° |
| 2026-04-30 19:46 | 52.10527 | -25.38524 | 34354 ft | 495 kts | 276° |
| 2026-04-30 19:46 | 52.10485 | -25.49728 | 34363 ft | 495 kts | 275° |
| 2026-04-30 19:47 | 52.10432 | -25.60937 | 34361 ft | 495 kts | 275° |
| 2026-04-30 19:47 | 52.10369 | -25.72138 | 34371 ft | 495 kts | 275° |
| 2026-04-30 19:48 | 52.10296 | -25.83281 | 34371 ft | 495 kts | 275° |
| 2026-04-30 19:48 | 52.10212 | -25.94486 | 34370 ft | 495 kts | 275° |
| 2026-04-30 19:49 | 52.10117 | -26.05694 | 34375 ft | 495 kts | 275° |
| 2026-04-30 19:49 | 52.09955 | -26.22502 | 34379 ft | 495 kts | 275° |
| 2026-04-30 19:50 | 52.09834 | -26.33627 | 34381 ft | 495 kts | 274° |
| 2026-04-30 19:50 | 52.09702 | -26.44812 | 34382 ft | 495 kts | 274° |
| 2026-04-30 19:51 | 52.09560 | -26.55990 | 34382 ft | 495 kts | 274° |
| 2026-04-30 19:51 | 52.09434 | -26.65297 | 34387 ft | 495 kts | 274° |
| 2026-04-30 19:52 | 52.09272 | -26.76482 | 34380 ft | 494 kts | 274° |
| 2026-04-30 19:52 | 52.09099 | -26.87681 | 34391 ft | 494 kts | 274° |
| 2026-04-30 19:53 | 52.08917 | -26.98848 | 34395 ft | 494 kts | 274° |
| 2026-04-30 19:53 | 52.08723 | -27.10026 | 34393 ft | 494 kts | 273° |
| 2026-04-30 19:54 | 52.08519 | -27.21203 | 34392 ft | 494 kts | 273° |
| 2026-04-30 19:54 | 52.08306 | -27.32299 | 34398 ft | 494 kts | 273° |
| 2026-04-30 19:55 | 52.08081 | -27.43464 | 34399 ft | 494 kts | 273° |
| 2026-04-30 19:55 | 52.07846 | -27.54642 | 34402 ft | 494 kts | 273° |
| 2026-04-30 19:56 | 52.07600 | -27.65806 | 34400 ft | 494 kts | 272° |
| 2026-04-30 19:56 | 52.07344 | -27.76959 | 34403 ft | 494 kts | 272° |
| 2026-04-30 19:57 | 52.07076 | -27.88125 | 34411 ft | 494 kts | 272° |
| 2026-04-30 19:57 | 52.06799 | -27.99288 | 34409 ft | 494 kts | 272° |
| 2026-04-30 19:58 | 52.06512 | -28.10386 | 34411 ft | 494 kts | 272° |
| 2026-04-30 19:58 | 52.06213 | -28.21554 | 34410 ft | 494 kts | 272° |
| 2026-04-30 19:59 | 52.05904 | -28.32722 | 34413 ft | 494 kts | 271° |
| 2026-04-30 20:00 | 52.05420 | -28.49447 | 34418 ft | 494 kts | 271° |
| 2026-04-30 20:00 | 52.05088 | -28.60507 | 34419 ft | 494 kts | 271° |
| 2026-04-30 20:01 | 52.04565 | -28.77227 | 34424 ft | 494 kts | 271° |
| 2026-04-30 20:01 | 52.04204 | -28.88363 | 34423 ft | 494 kts | 271° |
| 2026-04-30 20:02 | 52.03642 | -29.05060 | 34423 ft | 494 kts | 270° |
| 2026-04-30 20:03 | 52.03056 | -29.21778 | 34428 ft | 494 kts | 270° |
| 2026-04-30 20:03 | 52.02653 | -29.32910 | 34429 ft | 494 kts | 270° |
| 2026-04-30 20:04 | 52.02239 | -29.44047 | 34426 ft | 494 kts | 270° |
| 2026-04-30 20:05 | 52.01598 | -29.60760 | 34438 ft | 494 kts | 270° |
| 2026-04-30 20:05 | 52.00936 | -29.77384 | 34429 ft | 494 kts | 269° |
| 2026-04-30 20:06 | 52.00482 | -29.88518 | 34437 ft | 494 kts | 269° |
| 2026-04-30 20:06 | 52.00054 | -29.99640 | 34434 ft | 493 kts | 272° |
| 2026-04-30 20:07 | 52.00368 | -30.10694 | 34440 ft | 490 kts | 277° |
| 2026-04-30 20:08 | 52.01105 | -30.27268 | 34440 ft | 490 kts | 277° |
| 2026-04-30 20:08 | 52.01558 | -30.38238 | 34440 ft | 490 kts | 277° |
| 2026-04-30 20:09 | 52.01988 | -30.49298 | 34440 ft | 490 kts | 276° |
| 2026-04-30 20:09 | 52.02608 | -30.65880 | 34446 ft | 490 kts | 276° |
| 2026-04-30 20:10 | 52.03206 | -30.82473 | 34445 ft | 490 kts | 276° |
| 2026-04-30 20:11 | 52.03779 | -30.98987 | 34451 ft | 491 kts | 276° |
| 2026-04-30 20:11 | 52.04151 | -31.10069 | 34449 ft | 491 kts | 276° |
| 2026-04-30 20:12 | 52.04688 | -31.26677 | 34451 ft | 491 kts | 276° |
| 2026-04-30 20:13 | 52.05034 | -31.37760 | 34452 ft | 491 kts | 275° |
| 2026-04-30 20:13 | 52.05367 | -31.48793 | 34452 ft | 491 kts | 275° |
| 2026-04-30 20:14 | 52.05692 | -31.59877 | 34458 ft | 491 kts | 275° |
| 2026-04-30 20:14 | 52.06007 | -31.70985 | 34445 ft | 491 kts | 275° |
| 2026-04-30 20:15 | 52.06311 | -31.82103 | 34450 ft | 492 kts | 275° |
| 2026-04-30 20:15 | 52.06605 | -31.93197 | 34453 ft | 492 kts | 275° |
| 2026-04-30 20:16 | 52.06887 | -32.04243 | 34452 ft | 492 kts | 275° |
| 2026-04-30 20:16 | 52.07160 | -32.15362 | 34452 ft | 492 kts | 275° |
| 2026-04-30 20:17 | 52.07423 | -32.26480 | 34460 ft | 492 kts | 274° |
| 2026-04-30 20:17 | 52.07675 | -32.37608 | 34451 ft | 492 kts | 274° |
| 2026-04-30 20:18 | 52.07917 | -32.48731 | 34462 ft | 492 kts | 274° |
| 2026-04-30 20:18 | 52.08149 | -32.59849 | 34461 ft | 492 kts | 274° |
| 2026-04-30 20:19 | 52.08370 | -32.70978 | 34462 ft | 492 kts | 274° |
| 2026-04-30 20:19 | 52.08579 | -32.82025 | 34463 ft | 492 kts | 274° |
| 2026-04-30 20:20 | 52.08779 | -32.93160 | 34464 ft | 492 kts | 274° |
| 2026-04-30 20:20 | 52.08968 | -33.04283 | 34468 ft | 492 kts | 273° |
| 2026-04-30 20:21 | 52.09148 | -33.15417 | 34467 ft | 492 kts | 273° |
| 2026-04-30 20:21 | 52.09316 | -33.26554 | 34466 ft | 493 kts | 273° |
| 2026-04-30 20:22 | 52.09474 | -33.37667 | 34467 ft | 493 kts | 273° |
| 2026-04-30 20:22 | 52.09622 | -33.48809 | 34465 ft | 493 kts | 273° |
| 2026-04-30 20:23 | 52.09759 | -33.59953 | 34471 ft | 493 kts | 272° |
| 2026-04-30 20:23 | 52.09886 | -33.71100 | 34466 ft | 493 kts | 272° |
| 2026-04-30 20:24 | 52.10002 | -33.82183 | 34468 ft | 493 kts | 272° |
| 2026-04-30 20:24 | 52.10108 | -33.93315 | 34466 ft | 493 kts | 272° |
| 2026-04-30 20:25 | 52.10247 | -34.10039 | 34470 ft | 493 kts | 272° |
| 2026-04-30 20:26 | 52.10363 | -34.26787 | 34474 ft | 493 kts | 272° |
| 2026-04-30 20:26 | 52.10454 | -34.43471 | 34473 ft | 493 kts | 271° |
| 2026-04-30 20:27 | 52.10540 | -34.65764 | 34471 ft | 493 kts | 271° |
| 2026-04-30 20:28 | 52.10583 | -34.88054 | 34472 ft | 493 kts | 271° |
| 2026-04-30 20:30 | 52.10579 | -35.15923 | 34476 ft | 493 kts | 271° |
| 2026-04-30 20:31 | 52.10486 | -35.49305 | 34475 ft | 493 kts | 270° |
| 2026-04-30 20:32 | 52.10337 | -35.77177 | 34475 ft | 493 kts | 270° |
| 2026-04-30 20:33 | 52.10216 | -35.93916 | 34472 ft | 493 kts | 270° |
| 2026-04-30 20:34 | 52.10072 | -36.10586 | 34475 ft | 493 kts | 270° |
| 2026-04-30 20:35 | 52.09903 | -36.27340 | 34479 ft | 493 kts | 269° |
| 2026-04-30 20:35 | 52.09711 | -36.44078 | 34474 ft | 493 kts | 269° |
| 2026-04-30 20:36 | 52.09570 | -36.55229 | 34475 ft | 493 kts | 269° |
| 2026-04-30 20:37 | 52.09339 | -36.71900 | 34475 ft | 493 kts | 269° |
| 2026-04-30 20:37 | 52.09172 | -36.83067 | 34474 ft | 494 kts | 269° |
| 2026-04-30 20:38 | 52.08993 | -36.94246 | 34475 ft | 494 kts | 269° |
| 2026-04-30 20:38 | 52.08804 | -37.05409 | 34476 ft | 493 kts | 269° |
| 2026-04-30 20:39 | 52.08502 | -37.22129 | 34473 ft | 493 kts | 269° |
| 2026-04-30 20:40 | 52.08177 | -37.38787 | 34477 ft | 493 kts | 268° |
| 2026-04-30 20:40 | 52.07986 | -37.48054 | 34475 ft | 493 kts | 268° |
| 2026-04-30 20:41 | 52.07623 | -37.64762 | 34475 ft | 493 kts | 268° |
| 2026-04-30 20:41 | 52.07368 | -37.75919 | 34473 ft | 493 kts | 268° |
| 2026-04-30 20:42 | 52.07102 | -37.87062 | 34474 ft | 493 kts | 268° |
| 2026-04-30 20:43 | 52.06684 | -38.03768 | 34473 ft | 493 kts | 268° |
| 2026-04-30 20:43 | 52.06392 | -38.14912 | 34471 ft | 493 kts | 268° |
| 2026-04-30 20:44 | 52.05935 | -38.31615 | 34472 ft | 493 kts | 267° |
| 2026-04-30 20:45 | 52.05288 | -38.53895 | 34471 ft | 493 kts | 267° |
| 2026-04-30 20:45 | 52.04951 | -38.64962 | 34475 ft | 493 kts | 267° |
| 2026-04-30 20:46 | 52.04241 | -38.87233 | 34470 ft | 494 kts | 267° |
| 2026-04-30 20:47 | 52.03681 | -39.03943 | 34465 ft | 494 kts | 266° |
| 2026-04-30 20:48 | 52.03097 | -39.20643 | 34472 ft | 494 kts | 266° |
| 2026-04-30 20:48 | 52.02696 | -39.31722 | 34470 ft | 494 kts | 266° |
| 2026-04-30 20:49 | 52.02284 | -39.42855 | 34468 ft | 494 kts | 266° |
| 2026-04-30 20:50 | 52.01644 | -39.59576 | 34465 ft | 494 kts | 266° |
| 2026-04-30 20:50 | 52.01205 | -39.70704 | 34466 ft | 494 kts | 266° |
| 2026-04-30 20:51 | 52.00755 | -39.81849 | 34465 ft | 494 kts | 266° |
| 2026-04-30 20:51 | 52.00024 | -39.98549 | 34466 ft | 494 kts | 263° |
| 2026-04-30 20:52 | 51.98661 | -40.09474 | 34477 ft | 494 kts | 255° |
| 2026-04-30 20:53 | 51.96135 | -40.25639 | 34464 ft | 495 kts | 255° |
| 2026-04-30 20:53 | 51.94455 | -40.36465 | 34467 ft | 495 kts | 255° |
| 2026-04-30 20:54 | 51.91946 | -40.52710 | 34464 ft | 495 kts | 255° |
| 2026-04-30 20:55 | 51.89420 | -40.68941 | 34468 ft | 496 kts | 255° |
| 2026-04-30 20:55 | 51.87720 | -40.79765 | 34469 ft | 496 kts | 255° |
| 2026-04-30 20:56 | 51.85152 | -40.95974 | 34466 ft | 496 kts | 255° |
| 2026-04-30 20:57 | 51.82564 | -41.12145 | 34465 ft | 497 kts | 255° |
| 2026-04-30 20:57 | 51.80821 | -41.22954 | 34462 ft | 497 kts | 255° |
| 2026-04-30 20:58 | 51.78184 | -41.39172 | 34468 ft | 498 kts | 254° |
| 2026-04-30 20:58 | 51.76412 | -41.49985 | 34465 ft | 498 kts | 254° |
| 2026-04-30 20:59 | 51.73737 | -41.66179 | 34466 ft | 498 kts | 254° |
| 2026-04-30 21:00 | 51.70140 | -41.87713 | 34466 ft | 499 kts | 253° |
| 2026-04-30 21:01 | 51.67407 | -42.03898 | 34468 ft | 499 kts | 253° |
| 2026-04-30 21:02 | 51.64646 | -42.20099 | 34464 ft | 499 kts | 253° |
| 2026-04-30 21:02 | 51.62792 | -42.30890 | 34471 ft | 500 kts | 253° |
| 2026-04-30 21:03 | 51.60944 | -42.41588 | 34470 ft | 500 kts | 253° |
| 2026-04-30 21:03 | 51.59069 | -42.52370 | 34452 ft | 500 kts | 253° |
| 2026-04-30 21:04 | 51.57185 | -42.63141 | 34462 ft | 500 kts | 253° |
| 2026-04-30 21:04 | 51.54341 | -42.79276 | 34471 ft | 500 kts | 253° |
| 2026-04-30 21:05 | 51.52445 | -42.89952 | 34455 ft | 500 kts | 252° |
| 2026-04-30 21:05 | 51.50526 | -43.00692 | 34471 ft | 500 kts | 252° |
| 2026-04-30 21:06 | 51.48598 | -43.11420 | 34475 ft | 499 kts | 252° |
| 2026-04-30 21:06 | 51.46665 | -43.22117 | 34469 ft | 499 kts | 252° |
| 2026-04-30 21:07 | 51.44720 | -43.32813 | 34473 ft | 499 kts | 252° |
| 2026-04-30 21:07 | 51.42766 | -43.43494 | 34462 ft | 499 kts | 252° |
| 2026-04-30 21:08 | 51.40814 | -43.54106 | 34463 ft | 499 kts | 252° |
| 2026-04-30 21:08 | 51.38838 | -43.64783 | 34464 ft | 500 kts | 252° |
| 2026-04-30 21:09 | 51.36854 | -43.75449 | 34460 ft | 500 kts | 252° |
| 2026-04-30 21:09 | 51.34854 | -43.86133 | 34462 ft | 500 kts | 252° |
| 2026-04-30 21:10 | 51.32851 | -43.96775 | 34471 ft | 500 kts | 252° |
| 2026-04-30 21:10 | 51.30850 | -44.07344 | 34462 ft | 500 kts | 252° |
| 2026-04-30 21:11 | 51.28828 | -44.17966 | 34469 ft | 500 kts | 252° |
| 2026-04-30 21:11 | 51.26797 | -44.28574 | 34476 ft | 500 kts | 252° |
| 2026-04-30 21:12 | 51.24751 | -44.39199 | 34467 ft | 500 kts | 252° |
| 2026-04-30 21:12 | 51.22708 | -44.49753 | 34463 ft | 499 kts | 252° |
| 2026-04-30 21:13 | 51.20644 | -44.60358 | 34464 ft | 500 kts | 252° |
| 2026-04-30 21:13 | 51.18573 | -44.70938 | 34460 ft | 500 kts | 251° |
| 2026-04-30 21:14 | 51.16489 | -44.81525 | 34466 ft | 500 kts | 251° |
| 2026-04-30 21:14 | 51.14399 | -44.92084 | 34461 ft | 500 kts | 251° |
| 2026-04-30 21:15 | 51.12300 | -45.02632 | 34464 ft | 500 kts | 251° |
| 2026-04-30 21:15 | 51.10190 | -45.13182 | 34462 ft | 500 kts | 251° |
| 2026-04-30 21:16 | 51.08086 | -45.23639 | 34466 ft | 500 kts | 251° |
| 2026-04-30 21:16 | 51.05959 | -45.34158 | 34461 ft | 500 kts | 251° |
| 2026-04-30 21:17 | 51.03819 | -45.44684 | 34466 ft | 500 kts | 251° |
| 2026-04-30 21:17 | 51.01671 | -45.55192 | 34466 ft | 500 kts | 251° |
| 2026-04-30 21:18 | 50.99512 | -45.65702 | 34461 ft | 500 kts | 251° |
| 2026-04-30 21:18 | 50.97347 | -45.76180 | 34460 ft | 500 kts | 251° |